Home > Products > Valid Products > MTR

000
SAUS45 KMSO 201553
MTRP69
METAR KP69 201552Z AUTO VRB03KT 02/02 A2997 RMK AO1 SLP166 P0002
T00220017





000
SAUS45 KMSO 201454
MTRP69
METAR KP69 201452Z AUTO 36003KT 02/02 A2999 RMK AO1 SLP172 T00220017
56018





000
SAUS45 KMSO 201354
MTRP69
METAR KP69 201352Z AUTO 35003KT 02/01 A3001 RMK AO1 SLP179 T00220011





000
SAUS45 KMSO 201254
MTRP69
METAR KP69 201252Z AUTO 34004KT 02/01 A3002 RMK AO1 SLP181 T00220011





000
SAUS45 KMSO 201154
MTRP69
METAR KP69 201152Z AUTO 35003KT 02/02 A3005 RMK AO1 SLP191 70033
T00220017 10033 20022 58009





000
SAUS45 KMSO 201054
MTRP69
METAR KP69 201052Z AUTO 00000KT 03/02 A3007 RMK AO1 SLP196 T00280017





000
SAUS45 KMSO 200954
MTRP69
METAR KP69 200952Z AUTO 00000KT 03/02 A3008 RMK AO1 SLP200 T00280017





000
SAUS45 KMSO 200853
MTRP69
METAR KP69 200852Z AUTO 00000KT 03/02 A3007 RMK AO1 SLP200 T00280022
58016





000
SAUS45 KMSO 200754
MTRP69
METAR KP69 200752Z AUTO 00000KT 03/02 A3009 RMK AO1 SLP205 T00280022
400440022





000
SAUS45 KMSO 200754
MTRP69
METAR KP69 200752Z AUTO 00000KT 03/02 A3009 RMK AO1 SLP205 T00280022
400440022





000
SAUS45 KMSO 200654
MTRP69
METAR KP69 200652Z AUTO 19003KT 03/02 A3011 RMK AO1 SLP214 T00330022





000
SAUS45 KMSO 200554
MTRP69
METAR KP69 200552Z AUTO 00000KT 03/02 A3012 RMK AO1 SLP217 60007
T00330022 10044 20033 52009





000
SAUS45 KMSO 200453
MTRP69
METAR KP69 200452Z AUTO 00000KT 03/03 A3012 RMK AO1 SLP215 T00330028





000
SAUS45 KMSO 200354
MTRP69
METAR KP69 200352Z AUTO 33003KT 04/03 A3010 RMK AO1 SLP210 T00390028





000
SAUS45 KMSO 200354
MTRP69
METAR KP69 200352Z AUTO 33003KT 04/03 A3010 RMK AO1 SLP210 T00390028





000
SAUS45 KMSO 200254
MTRP69
METAR KP69 200252Z AUTO 00000KT 04/03 A3010 RMK AO1 SLP208 60007
T00390028 51013





000
SAUS45 KMSO 200154
MTRP69
METAR KP69 200152Z AUTO 00000KT 04/03 A3008 RMK AO1 SLP203 P0001
T00390033





000
SAUS45 KMSO 200154
MTRP69
METAR KP69 200152Z AUTO 00000KT 04/03 A3008 RMK AO1 SLP203 P0001
T00390033





000
SAUS45 KMSO 200054
MTRP69
METAR KP69 200052Z AUTO 00000KT 04/03 A3008 RMK AO1 SLP201 P0006
T00440033





000
SAUS45 KMSO 192354
MTRP69
METAR KP69 192352Z AUTO 00000KT 04/03 A3006 RMK AO1 SLP194 P0011
60022 T00440033 10044 20033 53023





000
SAUS45 KMSO 192254
MTRP69
METAR KP69 192252Z AUTO 00000KT 04/03 A3002 RMK AO1 SLP181 T00440033





000
SAUS45 KMSO 192154
MTRP69
METAR KP69 192152Z AUTO 00000KT 04/03 A3000 RMK AO1 SLP174 P0002
T00440033





000
SAUS45 KMSO 192054
MTRP69
METAR KP69 192052Z AUTO 00000KT 04/03 A2999 RMK AO1 SLP170 P0001
60009 T00390033 58005





000
SAUS45 KMSO 191953
MTRP69
METAR KP69 191952Z AUTO 00000KT 04/03 A2999 RMK AO1 SLP172 P0003
T00390028





000
SAUS45 KMSO 191953
MTRP69
METAR KP69 191952Z AUTO 00000KT 04/03 A2999 RMK AO1 SLP172 P0003
T00390028





000
SAUS45 KMSO 191854
MTRP69
METAR KP69 191852Z AUTO 00000KT 03/03 A3001 RMK AO1 SLP178 P0005
T00330028





000
SAUS45 KMSO 191854
MTRP69
METAR KP69 191852Z AUTO 00000KT 03/03 A3001 RMK AO1 SLP178 P0005
T00330028





000
SAUS45 KMSO 191754
MTRP69
METAR KP69 191752Z AUTO 35003KT 03/02 A3000 RMK AO1 SLP175 P0002
60004 T00330022 10033 20022 52004





000
SAUS45 KMSO 191654
MTRP69
METAR KP69 191652Z AUTO 00000KT 03/02 A3000 RMK AO1 SLP175 P0002
T00330022





000
SAUS45 KMSO 191554
MTRP69
METAR KP69 191552Z AUTO 31004KT 03/02 A2999 RMK AO1 SLP171 T00280017





000
SAUS45 KMSO 191453
MTRP69
METAR KP69 191452Z AUTO 33003KT 03/02 A2999 RMK AO1 SLP171 T00280017
56013





000
SAUS45 KMSO 191353
MTRP69
METAR KP69 191352Z AUTO 34004KT 03/02 A3000 RMK AO1 SLP173 T00280017





000
SAUS45 KMSO 191254
MTRP69
METAR KP69 191252Z AUTO 00000KT 02/02 A3001 RMK AO1 SLP179 T00220017





000
SAUS45 KMSO 191154
MTRP69
METAR KP69 191152Z AUTO 00000KT 02/01 A3003 RMK AO1 SLP184 70003
T00220011 10028 20022 58006





000
SAUS45 KMSO 191054
MTRP69
METAR KP69 191052Z AUTO VRB03KT 03/02 A3004 RMK AO1 SLP188 T00280017





000
SAUS45 KMSO 190954
MTRP69
METAR KP69 190952Z AUTO 00000KT 02/01 A3005 RMK AO1 SLP190 T00220011





000
SAUS45 KMSO 190954
MTRP69
METAR KP69 190952Z AUTO 00000KT 02/01 A3005 RMK AO1 SLP190 T00220011





000
SAUS45 KMSO 190853
MTRP69
METAR KP69 190852Z AUTO 00000KT 03/02 A3005 RMK AO1 SLP189 T00280017
58008





000
SAUS45 KMSO 190754
MTRP69
METAR KP69 190752Z AUTO 00000KT 02/01 A3006 RMK AO1 SLP194 T00220011
400560017





000
SAUS45 KMSO 190654
MTRP69
METAR KP69 190652Z AUTO 00000KT 03/02 A3007 RMK AO1 SLP199 T00280017





000
SAUS45 KMSO 190554
MTRP69
METAR KP69 190552Z AUTO 00000KT 03/02 A3007 RMK AO1 SLP199 T00280022
10044 20028 52002





000
SAUS45 KMSO 190454
MTRP69
METAR KP69 190452Z AUTO 00000KT 03/02 A3007 RMK AO1 SLP198 T00330022





000
SAUS45 KMSO 190354
MTRP69
METAR KP69 190352Z AUTO 00000KT 03/02 A3007 RMK AO1 SLP199 T00330022





000
SAUS45 KMSO 190354
MTRP69
METAR KP69 190352Z AUTO 00000KT 03/02 A3007 RMK AO1 SLP199 T00330022





000
SAUS45 KMSO 190253
MTRP69
METAR KP69 190252Z AUTO 00000KT 03/02 A3006 RMK AO1 SLP199 T00280017
50001





000
SAUS45 KMSO 190154
MTRP69
METAR KP69 190152Z AUTO 01003KT 03/02 A3007 RMK AO1 SLP198 T00330022





000
SAUS45 KMSO 190154
MTRP69
METAR KP69 190152Z AUTO 01003KT 03/02 A3007 RMK AO1 SLP198 T00330022





000
SAUS45 KMSO 190054
MTRP69
METAR KP69 190052Z AUTO 34004KT 04/03 A3006 RMK AO1 SLP197 T00390028





000
SAUS45 KMSO 182353
MTRP69
METAR KP69 182352Z AUTO 32003KT 04/03 A3006 RMK AO1 SLP195 60002
T00440033 10056 20028 55003





000
SAUS45 KMSO 182254
MTRP69
METAR KP69 182252Z AUTO 36003KT 05/03 A3006 RMK AO1 SLP194 T00500033





000
SAUS45 KMSO 182154
MTRP69
METAR KP69 182152Z AUTO 35003KT 05/03 A3006 RMK AO1 SLP195 T00500033





000
SAUS45 KMSO 182054
MTRP69
METAR KP69 182052Z AUTO 35003KT 05/03 A3007 RMK AO1 SLP198 60002
T00500028 58014





000
SAUS45 KMSO 181953
MTRP69
METAR KP69 181952Z AUTO 00000KT 04/03 A3009 RMK AO1 SLP205 P0002
T00440028





000
SAUS45 KMSO 181853
MTRP69
METAR KP69 181852Z AUTO 00000KT 03/02 A3011 RMK AO1 SLP213 T00280017





000
SAUS45 KMSO 181754
MTRP69
METAR KP69 181752Z AUTO 00000KT 03/02 A3011 RMK AO1 SLP215 60001
T00280017 10028 20017 53007





000
SAUS45 KMSO 181654
MTRP69
METAR KP69 181652Z AUTO 00000KT 02/01 A3010 RMK AO1 SLP211 T00220011





000
SAUS45 KMSO 181554
MTRP69
METAR KP69 181552Z AUTO 00000KT 02/01 A3009 RMK AO1 SLP208 P0001
T00170006





000
SAUS45 KMSO 181454
MTRP69
METAR KP69 181452Z AUTO 00000KT 02/01 A3009 RMK AO1 SLP207 T00170006
53006





000
SAUS45 KMSO 181354
MTRP69
METAR KP69 181352Z AUTO 32003KT 02/01 A3008 RMK AO1 SLP203 T00170006





000
SAUS45 KMSO 181354
MTRP69
METAR KP69 181352Z AUTO 32003KT 02/01 A3008 RMK AO1 SLP203 T00170006





000
SAUS45 KMSO 181253
MTRP69
METAR KP69 181252Z AUTO 00000KT 02/01 A3007 RMK AO1 SLP200 T00170006





000
SAUS45 KMSO 181253
MTRP69
METAR KP69 181252Z AUTO 00000KT 02/01 A3007 RMK AO1 SLP200 T00170006





000
SAUS45 KMSO 181153
MTRP69
METAR KP69 181152Z AUTO 00000KT 02/01 A3007 RMK AO1 SLP200 T00170006
10017 20017 53008





000
SAUS45 KMSO 181054
MTRP69
METAR KP69 181052Z AUTO 31003KT 02/01 A3006 RMK AO1 SLP196 T00170006





000
SAUS45 KMSO 181054
MTRP69
METAR KP69 181052Z AUTO 31003KT 02/01 A3006 RMK AO1 SLP196 T00170006





000
SAUS45 KMSO 180954
MTRP69
METAR KP69 180952Z AUTO 00000KT 02/01 A3005 RMK AO1 SLP193 T00170006





000
SAUS45 KMSO 180853
MTRP69
METAR KP69 180852Z AUTO 31004KT 02/00 A3004 RMK AO1 SLP189 T00170000
51004





000
SAUS45 KMSO 180853
MTRP69
METAR KP69 180852Z AUTO 31004KT 02/00 A3004 RMK AO1 SLP189 T00170000
51004





000
SAUS45 KMSO 180754
MTRP69
METAR KP69 180752Z AUTO 00000KT 02/01 A3004 RMK AO1 SLP189 T00170006
400671006





000
SAUS45 KMSO 180754
MTRP69
METAR KP69 180752Z AUTO 00000KT 02/01 A3004 RMK AO1 SLP189 T00170006
400671006





000
SAUS45 KMSO 180654
MTRP69
METAR KP69 180652Z AUTO 35003KT 02/01 A3004 RMK AO1 SLP192 T00170006





000
SAUS45 KMSO 180554
MTRP69
METAR KP69 180552Z AUTO 33004KT 02/01 A3003 RMK AO1 SLP187 T00170006
10033 20017 51009





000
SAUS45 KMSO 180454
MTRP69
METAR KP69 180452Z AUTO VRB03KT 02/01 A3003 RMK AO1 SLP189 T00170006





000
SAUS45 KMSO 180354
MTRP69
METAR KP69 180352Z AUTO 31004KT 02/01 A3002 RMK AO1 SLP185 T00220006





000
SAUS45 KMSO 180354
MTRP69
METAR KP69 180352Z AUTO 31004KT 02/01 A3002 RMK AO1 SLP185 T00220006





000
SAUS45 KMSO 180254
MTRP69
METAR KP69 180252Z AUTO 31003KT 02/01 A3000 RMK AO1 SLP181 T00220006
51006





000
SAUS45 KMSO 180154
MTRP69
METAR KP69 180152Z AUTO 00000KT 03/01 A3000 RMK AO1 SLP179 T00280011





000
SAUS45 KMSO 180154
MTRP69
METAR KP69 180152Z AUTO 00000KT 03/01 A3000 RMK AO1 SLP179 T00280011





000
SAUS45 KMSO 180053
MTRP69
METAR KP69 180052Z AUTO 01003KT 03/01 A3000 RMK AO1 SLP176 T00280011





000
SAUS45 KMSO 172353
MTRP69
METAR KP69 172352Z AUTO 34004KT 03/02 A2999 RMK AO1 SLP173 T00330017
10067 20017 53007





000
SAUS45 KMSO 172254
MTRP69
METAR KP69 172252Z AUTO 35004KT 04/01 A2997 RMK AO1 SLP167 T00390011





000
SAUS45 KMSO 172154
MTRP69
METAR KP69 172152Z AUTO 35004KT 04/01 A2997 RMK AO1 SLP165 T00390011





000
SAUS45 KMSO 172154
MTRP69
METAR KP69 172152Z AUTO 35004KT 04/01 A2997 RMK AO1 SLP165 T00390011





000
SAUS45 KMSO 172054
MTRP69
METAR KP69 172052Z AUTO VRB04KT 06/01 A2996 RMK AO1 SLP161 T00610006
58024





000
SAUS45 KMSO 171954
MTRP69
METAR KP69 171952Z AUTO VRB03KT 03/00 A2999 RMK AO1 SLP174 T00330000





000
SAUS45 KMSO 171854
MTRP69
METAR KP69 171852Z AUTO VRB03KT 02/M01 A3002 RMK AO1 SLP185
T00221006





000
SAUS45 KMSO 171754
MTRP69
METAR KP69 171752Z AUTO 01003KT 02/M01 A3004 RMK AO1 SLP190
T00221011 10033 20000 54000





000
SAUS45 KMSO 171654
MTRP69
METAR KP69 171652Z AUTO 00000KT 01/M01 A3004 RMK AO1 SLP192
T00061011





    US Dept of Commerce
    National Oceanic and Atmospheric Administration
    National Weather Service
    1325 East West Highway
    Silver Spring, MD 20910
    Page Author: NWS Internet Services Team
Disclaimer
Information Quality
Credits
Glossary
Privacy Policy
Freedom of Information Act (FOIA)
About Us
Career Opportunities